Aérodrome :
LOGIN :

S'inscrire | Disclaimer

   EN    FR    IT 

 










Légende :    VFR   VFR Marginal   IFR   IFR Intensif   IFR Très Intensif
Visi : 
Plafond : 
>= 8 km
>= 3000ft
5 à 8 km
1000 à 3000 ft
1500m à 5 km
500 à 1000 ft
800 à 1500m
200 à 500 ft
< 800m
< 200 ft
Symboles :   Orages  Brouillard  Fortes neiges  Fortes précipitations  Vent > 20 kt
SIGMETs :   Divers  Orages  Givrage  Turbulence  Onde Orograph.  Cendres Volcan.






- Altitude de l'aérodrome : 362 ft
- Code IATA : WAW


EPWA - Warsaw Okecie

DERNIER METAR :
  • 191530Z 32006KT CAVOK 03/M00 Q1033 NOSIG

METARs EXPIRÉS :
  • 191500Z 32005KT CAVOK 03/M01 Q1032 NOSIG
  • 191430Z 34005KT 320V020 CAVOK 05/M00 Q1032 NOSIG
  • 191400Z 34008KT CAVOK 05/00 Q1032 NOSIG
  • 191330Z 33007KT CAVOK 05/00 Q1031 NOSIG
  • 191300Z 32007KT CAVOK 06/01 Q1031 NOSIG

TAF TAF EPWA
Valide du 19 à 15h jusqu'au 20 à 15h UTC


191430Z 1915/2015 32006KT CAVOK
BECMG 1920/1923 4500 BR BKN014
TEMPO 1923/2007 1500 BR BKN005
PROB40 2002/2007 0600 FG OVC002



MET'MAP, la Météo Aéronautique d'un coup d'oeil ! - Copyright ORBIFLY Décembre 2007 - Disclaimer

ORBIFLY MET'MAP TEAM :

Programmation & Développement : Alexandra Zaïnal
Sur une idée originale de : Baudouin d'Aumeries
Assistance à la programmation : Marc-Olivier Méhu
Soutien technique & logistique : Manuel Goepfert

Contact : metmap@orbifly.com




SOURCES & CREDITS :

   NOAA